Time;durP1;ratioP1;P1;durP2;ratioP2;P2;SDS_P1;SDS_P2;PMS_P1;PMS_P2;Temp;Humidity;BMP_temperature;BMP_pressure;BME280_temperature;BME280_humidity;BME280_pressure;Samples;Min_cycle;Max_cycle;Signal;HPM_P1;HPM_P2
2023/10/08 00:00:55;;;;;;;28.20;11.20;;;;;;;12.06;nan;100820.31;4951422;28;20082;-73
2023/10/08 00:03:22;;;;;;;21.63;11.95;;;;;;;12.11;nan;100822.28;4951325;28;20461;-73
2023/10/08 00:05:51;;;;;;;27.80;11.93;;;;;;;12.12;nan;100816.78;4949513;28;20023;-72
2023/10/08 00:08:17;;;;;;;27.95;12.07;;;;;;;12.14;nan;100816.56;4950732;28;20051;-73
2023/10/08 00:10:44;;;;;;;24.70;11.32;;;;;;;12.15;nan;100815.53;4950659;28;20097;-73
2023/10/08 00:13:11;;;;;;;25.60;11.68;;;;;;;12.16;nan;100811.03;4951405;28;20031;-72
2023/10/08 00:15:37;;;;;;;29.90;13.15;;;;;;;12.12;nan;100802.78;4952689;28;20174;-73
2023/10/08 00:18:04;;;;;;;25.10;12.38;;;;;;;12.01;nan;100783.22;4951424;28;20102;-73
2023/10/08 00:21:37;;;;;;;25.10;11.63;;;;;;;12.20;nan;100809.56;4948499;28;20033;-72
2023/10/08 00:23:30;;;;;;;21.35;11.10;;;;;;;12.14;nan;100806.00;4952851;28;20502;-71
2023/10/08 00:25:57;;;;;;;21.92;11.57;;;;;;;12.24;nan;100813.38;4952140;28;20023;-72
2023/10/08 00:28:24;;;;;;;23.23;11.20;;;;;;;12.16;nan;100790.72;4950765;28;20031;-72
2023/10/08 00:30:49;;;;;;;28.40;11.35;;;;;;;12.28;nan;100790.75;4953436;28;20469;-73
2023/10/08 00:33:15;;;;;;;25.80;11.55;;;;;;;12.32;nan;100795.34;4951377;28;20032;-72
2023/10/08 00:35:42;;;;;;;20.85;11.18;;;;;;;12.33;nan;100793.50;4950508;28;20058;-72
2023/10/08 00:38:20;;;;;;;21.92;11.43;;;;;;;12.36;nan;100802.84;4952010;28;20462;-72
2023/10/08 00:40:49;;;;;;;23.10;12.27;;;;;;;12.30;nan;100791.34;4947164;28;20664;-72
2023/10/08 00:43:34;;;;;;;24.30;10.77;;;;;;;12.36;nan;100793.09;4949850;28;20031;-72
2023/10/08 00:46:01;;;;;;;21.23;11.32;;;;;;;12.32;nan;100784.78;4953639;28;20556;-72
2023/10/08 00:48:34;;;;;;;25.23;11.25;;;;;;;12.44;nan;100787.47;4957278;28;20122;-73
2023/10/08 00:51:15;;;;;;;25.77;11.73;;;;;;;12.41;nan;100784.47;4950230;28;20031;-73
2023/10/08 00:53:40;;;;;;;31.38;12.15;;;;;;;12.48;nan;100783.34;4950946;28;20051;-74
2023/10/08 00:56:13;;;;;;;25.77;11.10;;;;;;;12.44;nan;100776.91;4957165;28;20054;-72
2023/10/08 00:58:41;;;;;;;39.90;11.95;;;;;;;12.51;nan;100787.34;4972383;28;20035;-72
2023/10/08 01:01:10;;;;;;;24.40;10.52;;;;;;;12.58;nan;100784.63;4978924;28;20094;-73
2023/10/08 01:03:36;;;;;;;25.05;14.82;;;;;;;12.55;nan;100772.66;4978550;28;20019;-73
2023/10/08 01:06:03;;;;;;;31.92;15.77;;;;;;;12.68;nan;100776.91;4976072;28;20049;-74
2023/10/08 01:08:45;;;;;;;25.83;10.93;;;;;;;12.75;nan;100782.91;4974102;28;20023;-73
2023/10/08 01:11:18;;;;;;;18.88;10.98;;;;;;;12.66;nan;100763.94;4957013;28;20098;-73
2023/10/08 01:13:45;;;;;;;24.27;11.02;;;;;;;12.66;nan;100753.34;4957242;28;20037;-73
2023/10/08 01:16:11;;;;;;;24.75;10.35;;;;;;;12.68;nan;100755.78;4957221;28;20056;-73
2023/10/08 01:18:42;;;;;;;25.85;11.02;;;;;;;12.67;nan;100754.19;4956245;28;20035;-73
2023/10/08 01:21:11;;;;;;;28.15;11.38;;;;;;;12.63;nan;100735.34;4955334;28;20389;-73
2023/10/08 01:23:38;;;;;;;23.52;11.18;;;;;;;12.70;nan;100743.94;4953846;28;20083;-73
2023/10/08 01:26:12;;;;;;;23.98;10.43;;;;;;;12.60;nan;100727.06;4951255;28;20023;-73
2023/10/08 01:28:38;;;;;;;20.95;11.40;;;;;;;12.65;nan;100730.63;4955780;28;20082;-73
2023/10/08 01:31:04;;;;;;;23.08;10.93;;;;;;;12.73;nan;100750.59;4954893;28;20485;-72
2023/10/08 01:33:38;;;;;;;21.17;10.95;;;;;;;12.70;nan;100741.31;4949209;28;20041;-73
2023/10/08 01:36:04;;;;;;;24.80;10.68;;;;;;;12.67;nan;100733.84;4951385;28;20027;-73
2023/10/08 01:38:32;;;;;;;22.67;10.77;;;;;;;12.71;nan;100729.72;4950738;28;20031;-73
2023/10/08 01:41:02;;;;;;;29.08;11.32;;;;;;;12.74;nan;100728.44;4953987;28;20466;-73
2023/10/08 01:43:28;;;;;;;22.58;10.82;;;;;;;12.70;nan;100716.72;4953273;28;20058;-72
2023/10/08 01:45:54;;;;;;;23.42;10.95;;;;;;;12.69;nan;100715.09;4954046;28;20047;-72
2023/10/08 01:48:20;;;;;;;23.10;12.48;;;;;;;12.71;nan;100716.50;4953407;28;20029;-72
2023/10/08 01:50:47;;;;;;;25.45;11.77;;;;;;;12.73;nan;100709.13;4953444;28;20438;-73
2023/10/08 01:53:15;;;;;;;27.23;12.13;;;;;;;12.66;nan;100697.06;4955867;28;20070;-72
2023/10/08 01:55:51;;;;;;;20.67;11.73;;;;;;;12.92;nan;100730.94;4960351;28;20027;-72
2023/10/08 01:58:18;;;;;;;23.05;10.93;;;;;;;12.83;nan;100721.75;4953816;28;20023;-72
2023/10/08 02:00:47;;;;;;;21.70;10.85;;;;;;;12.77;nan;100704.19;4953614;28;20054;-73
2023/10/08 02:03:17;;;;;;;25.98;11.75;;;;;;;12.78;nan;100705.78;4953040;28;20054;-73
2023/10/08 02:05:44;;;;;;;25.92;12.70;;;;;;;12.81;nan;100707.16;4951678;28;20027;-72
2023/10/08 02:08:14;;;;;;;25.00;11.63;;;;;;;12.88;nan;100726.34;4952469;28;20027;-72
2023/10/08 02:10:42;;;;;;;21.70;11.65;;;;;;;12.83;nan;100710.38;4947815;28;20763;-73
2023/10/08 02:13:09;;;;;;;22.88;11.65;;;;;;;12.81;nan;100713.28;4957367;28;20078;-73
2023/10/08 02:15:43;;;;;;;27.02;12.15;;;;;;;12.88;nan;100719.25;4952437;28;20031;-73
2023/10/08 02:18:09;;;;;;;20.77;11.68;;;;;;;12.76;nan;100700.75;4955723;28;20081;-72
2023/10/08 02:20:34;;;;;;;25.88;12.70;;;;;;;12.81;nan;100713.28;4951402;28;20035;-72
2023/10/08 02:23:00;;;;;;;23.17;12.80;;;;;;;12.87;nan;100720.25;4952615;28;20042;-73
2023/10/08 02:25:26;;;;;;;26.45;13.88;;;;;;;12.85;nan;100717.03;4952562;28;20051;-73
2023/10/08 02:27:51;;;;;;;23.52;13.00;;;;;;;12.82;nan;100706.94;4953286;28;20466;-73
2023/10/08 02:30:17;;;;;;;26.20;13.63;;;;;;;12.94;nan;100723.59;4953664;28;20038;-74
2023/10/08 02:32:43;;;;;;;25.00;13.55;;;;;;;12.94;nan;100718.31;4949824;28;20167;-73
2023/10/08 02:35:11;;;;;;;25.58;13.75;;;;;;;12.98;nan;100718.66;4949164;28;20110;-73
2023/10/08 02:37:40;;;;;;;23.90;13.68;;;;;;;12.86;nan;100700.16;4951960;28;20529;-73
2023/10/08 02:40:19;;;;;;;25.95;14.18;;;;;;;12.93;nan;100707.97;4959134;28;20023;-73
2023/10/08 02:42:44;;;;;;;28.80;14.88;;;;;;;12.99;nan;100709.69;4951102;28;20031;-73
2023/10/08 02:45:13;;;;;;;35.03;16.05;;;;;;;12.95;nan;100711.16;4952070;28;20027;-73
2023/10/08 02:47:41;;;;;;;27.45;15.93;;;;;;;13.03;nan;100710.03;4952268;28;20586;-73
2023/10/08 02:50:08;;;;;;;27.85;16.40;;;;;;;13.00;nan;100700.72;4951382;28;20030;-74
2023/10/08 02:52:33;;;;;;;32.78;17.67;;;;;;;13.04;nan;100703.69;4954691;28;20131;-73
2023/10/08 02:55:00;;;;;;;28.17;17.63;;;;;;;12.95;nan;100684.72;4951341;28;20178;-73
2023/10/08 02:57:29;;;;;;;30.40;17.92;;;;;;;13.06;nan;100698.97;4952650;28;20033;-73
2023/10/08 02:59:54;;;;;;;33.97;18.38;;;;;;;13.03;nan;100694.16;4948913;28;20035;-73
2023/10/08 03:02:21;;;;;;;36.00;19.33;;;;;;;13.08;nan;100694.25;4951205;28;20045;-72
2023/10/08 03:04:48;;;;;;;34.47;20.27;;;;;;;13.04;nan;100690.47;4956580;28;20058;-72
2023/10/08 03:07:31;;;;;;;39.03;21.05;;;;;;;13.10;nan;100698.28;4954590;28;20011;-73
2023/10/08 03:10:06;;;;;;;35.60;21.08;;;;;;;13.11;nan;100691.94;4954434;28;20027;-73
2023/10/08 03:12:34;;;;;;;35.50;21.52;;;;;;;13.12;nan;100684.81;4952615;28;20023;-73
2023/10/08 03:17:54;;;;;;;39.22;22.13;;;;;;;13.10;nan;100665.75;4955859;28;20512;-72
2023/10/08 03:23:23;;;;;;;40.30;23.85;;;;;;;13.15;nan;100687.00;4955135;28;20038;-74
2023/10/08 03:26:33;;;;;;;35.78;23.30;;;;;;;13.06;nan;100668.06;4975856;28;20015;-72
2023/10/08 03:28:44;;;;;;;40.38;24.63;;;;;;;13.13;nan;100681.94;4977995;28;20090;-72
2023/10/08 03:31:17;;;;;;;42.78;25.23;;;;;;;13.08;nan;100655.41;4972931;28;20027;-72
2023/10/08 03:33:48;;;;;;;42.55;24.25;;;;;;;13.17;nan;100661.94;4975644;28;20020;-73
2023/10/08 03:36:20;;;;;;;39.42;24.60;;;;;;;12.93;nan;100629.47;4968269;28;20050;-74
2023/10/08 03:38:52;;;;;;;42.08;24.58;;;;;;;13.11;nan;100648.84;4973715;28;20023;-74
2023/10/08 03:41:30;;;;;;;39.05;23.85;;;;;;;13.17;nan;100647.91;4955856;28;20062;-74
2023/10/08 03:44:01;;;;;;;43.90;24.60;;;;;;;13.11;nan;100627.69;4956793;28;20031;-74
2023/10/08 03:46:31;;;;;;;44.95;23.75;;;;;;;13.19;nan;100651.94;4959456;28;20027;-74
2023/10/08 03:49:04;;;;;;;41.15;23.88;;;;;;;13.15;nan;100642.06;4957354;28;20042;-74
2023/10/08 03:51:29;;;;;;;37.42;23.25;;;;;;;13.16;nan;100643.66;4954647;28;20466;-74
2023/10/08 03:54:15;;;;;;;39.70;23.30;;;;;;;13.18;nan;100638.94;4954103;28;20098;-73
2023/10/08 03:56:45;;;;;;;44.50;23.23;;;;;;;13.12;nan;100624.81;4955527;28;20035;-74
2023/10/08 03:59:33;;;;;;;37.25;23.10;;;;;;;13.17;nan;100632.03;4968895;28;20713;-74
2023/10/08 04:02:10;;;;;;;32.65;21.08;;;;;;;13.09;nan;100624.47;4954773;28;20047;-74
2023/10/08 04:04:51;;;;;;;32.13;20.60;;;;;;;13.16;nan;100635.72;4954524;28;20030;-74
2023/10/08 04:07:26;;;;;;;37.22;19.55;;;;;;;13.21;nan;100630.50;4956157;28;20039;-73
2023/10/08 04:10:16;;;;;;;35.17;19.77;;;;;;;13.22;nan;100633.97;4953392;28;20035;-74
2023/10/08 04:12:44;;;;;;;29.27;18.73;;;;;;;13.14;nan;100627.22;4948118;28;20035;-72
2023/10/08 04:15:12;;;;;;;35.30;19.33;;;;;;;13.17;nan;100627.56;4948635;28;20026;-74
2023/10/08 04:17:44;;;;;;;34.97;18.65;;;;;;;13.28;nan;100639.13;4948142;28;20031;-74
2023/10/08 04:22:55;;;;;;;29.23;16.77;;;;;;;13.21;nan;100627.88;4953970;28;20110;-73
2023/10/08 04:25:21;;;;;;;35.17;16.95;;;;;;;13.25;nan;100625.56;4952207;28;20114;-73
2023/10/08 04:27:49;;;;;;;29.65;15.57;;;;;;;13.19;nan;100614.91;4953901;28;20051;-74
2023/10/08 04:30:15;;;;;;;28.27;16.90;;;;;;;13.23;nan;100628.44;4954008;28;20023;-74
2023/10/08 04:32:41;;;;;;;29.77;15.95;;;;;;;13.28;nan;100639.13;4958890;28;20042;-73
2023/10/08 04:35:09;;;;;;;28.17;15.10;;;;;;;13.22;nan;100637.44;4954408;28;20031;-74
2023/10/08 04:37:34;;;;;;;28.30;15.25;;;;;;;13.16;nan;100617.19;4951631;28;20564;-73
2023/10/08 04:40:00;;;;;;;27.08;15.38;;;;;;;13.30;nan;100639.72;4965907;28;20027;-73
2023/10/08 04:42:26;;;;;;;26.92;14.23;;;;;;;13.24;nan;100624.78;4968046;28;20031;-73
2023/10/08 04:44:52;;;;;;;26.63;13.85;;;;;;;13.19;nan;100619.38;4970275;28;20038;-74
2023/10/08 04:47:33;;;;;;;25.17;14.25;;;;;;;13.27;nan;100631.44;4955285;28;20023;-75
2023/10/08 04:49:59;;;;;;;26.60;14.27;;;;;;;13.31;nan;100646.63;4953197;28;20037;-73
2023/10/08 04:52:27;;;;;;;23.13;13.80;;;;;;;13.20;nan;100627.06;4954536;28;20417;-73
2023/10/08 04:54:54;;;;;;;27.02;14.35;;;;;;;13.33;nan;100635.78;4954656;28;20031;-72
2023/10/08 04:57:22;;;;;;;24.42;13.38;;;;;;;13.35;nan;100639.00;4952547;28;20549;-73
2023/10/08 04:59:50;;;;;;;25.33;14.07;;;;;;;13.34;nan;100637.41;4955441;28;20090;-73
2023/10/08 05:02:40;;;;;;;25.35;13.73;;;;;;;13.39;nan;100635.66;4951659;28;20030;-72
2023/10/08 05:08:24;;;;;;;22.98;13.13;;;;;;;13.39;nan;100646.22;4953343;28;20426;-72
2023/10/08 05:13:33;;;;;;;21.60;12.93;;;;;;;13.45;nan;100643.66;4955720;28;20075;-74
2023/10/08 05:16:02;;;;;;;22.03;13.03;;;;;;;13.38;nan;100625.28;4945090;28;20069;-73
2023/10/08 05:18:54;;;;;;;27.60;13.23;;;;;;;13.43;nan;100619.28;4953932;28;20512;-73
2023/10/08 05:21:25;;;;;;;22.23;13.23;;;;;;;13.40;nan;100600.22;4955450;28;20067;-73
2023/10/08 05:24:08;;;;;;;22.92;13.02;;;;;;;13.46;nan;100630.22;4952996;28;20038;-73
2023/10/08 05:26:49;;;;;;;25.30;13.45;;;;;;;13.42;nan;100618.50;4954594;28;20027;-73
2023/10/08 05:29:51;;;;;;;25.05;13.02;;;;;;;13.45;nan;100619.84;4950936;28;20023;-73
2023/10/08 05:32:37;;;;;;;24.67;13.48;;;;;;;13.51;nan;100624.22;4956063;28;20019;-74
2023/10/08 05:37:52;;;;;;;26.25;13.98;;;;;;;13.50;nan;100619.94;4955953;28;20123;-72
2023/10/08 05:40:54;;;;;;;22.92;12.65;;;;;;;13.51;nan;100610.97;4954587;28;20481;-73
2023/10/08 05:43:33;;;;;;;23.40;12.75;;;;;;;13.48;nan;100600.84;4952846;28;20032;-74
2023/10/08 05:46:19;;;;;;;23.23;13.13;;;;;;;13.50;nan;100593.50;4954266;28;20057;-73
2023/10/08 05:48:46;;;;;;;25.58;12.55;;;;;;;13.52;nan;100596.69;4953229;28;20041;-73
2023/10/08 05:51:33;;;;;;;23.98;12.48;;;;;;;13.56;nan;100603.91;4956675;28;20027;-73
2023/10/08 05:53:59;;;;;;;22.35;11.98;;;;;;;13.64;nan;100615.94;4977014;28;20027;-73
2023/10/08 05:56:52;;;;;;;29.90;12.15;;;;;;;13.60;nan;100598.97;4978259;28;20079;-73
2023/10/08 05:59:27;;;;;;;24.08;12.27;;;;;;;13.69;nan;100602.00;4975513;28;20030;-73
2023/10/08 06:02:05;;;;;;;21.27;11.75;;;;;;;13.76;nan;100611.38;4968219;28;20046;-74
2023/10/08 06:04:42;;;;;;;20.80;10.88;;;;;;;13.75;nan;100587.81;4958961;28;20042;-75
2023/10/08 06:07:23;;;;;;;22.00;11.15;;;;;;;13.83;nan;100598.78;4962549;29;20039;-72
2023/10/08 06:10:02;;;;;;;25.65;11.93;;;;;;;13.82;nan;100612.28;4964026;28;20039;-75
2023/10/08 06:12:39;;;;;;;22.02;11.25;;;;;;;13.93;nan;100611.38;4955745;28;20030;-74
2023/10/08 06:15:08;;;;;;;16.88;11.02;;;;;;;13.90;nan;100598.63;4955946;28;20027;-74
2023/10/08 06:17:55;;;;;;;18.40;10.95;;;;;;;13.97;nan;100603.75;4956652;28;20864;-74
2023/10/08 06:20:25;;;;;;;20.70;11.07;;;;;;;13.96;nan;100581.78;4958952;28;20743;-73
2023/10/08 06:22:52;;;;;;;21.08;10.68;;;;;;;14.07;nan;100593.31;4956838;28;20237;-75
2023/10/08 06:25:23;;;;;;;22.70;11.00;;;;;;;14.11;nan;100588.34;4952440;28;20497;-75
2023/10/08 06:27:55;;;;;;;24.27;10.63;;;;;;;14.16;nan;100599.00;4952500;28;20023;-75
2023/10/08 06:30:21;;;;;;;19.60;11.00;;;;;;;14.13;nan;100610.09;4950255;28;20710;-75
2023/10/08 06:32:48;;;;;;;22.75;10.95;;;;;;;14.15;nan;100602.69;4950979;28;20094;-75
2023/10/08 06:35:17;;;;;;;24.08;11.45;;;;;;;14.26;nan;100629.06;4949279;28;20031;-75
2023/10/08 06:37:45;;;;;;;;;;;;;;;14.32;nan;100623.84;4946551;28;20051;-75
2023/10/08 06:42:57;;;;;;;24.15;11.30;;;;;;;14.34;nan;100609.34;4948138;29;20062;-75
2023/10/08 06:45:22;;;;;;;17.67;10.13;;;;;;;14.39;nan;100625.28;4949480;28;20023;-75
2023/10/08 06:48:06;;;;;;;21.65;11.05;;;;;;;14.40;nan;100624.25;4952656;28;20074;-74
2023/10/08 06:50:35;;;;;;;21.20;10.90;;;;;;;14.45;nan;100631.47;4950657;28;20037;-75
2023/10/08 06:53:07;;;;;;;22.77;9.55;;;;;;;14.38;nan;100614.94;4949633;28;20052;-75
2023/10/08 06:55:35;;;;;;;27.40;10.38;;;;;;;14.43;nan;100615.78;4964576;28;20034;-74
2023/10/08 06:58:05;;;;;;;22.40;10.77;;;;;;;14.50;nan;100625.44;4953086;28;20037;-74
2023/10/08 07:01:05;;;;;;;22.10;10.57;;;;;;;14.44;nan;100614.75;4951994;28;20110;-74
2023/10/08 07:03:24;;;;;;;20.92;10.55;;;;;;;14.52;nan;100615.38;4946717;28;20773;-74
2023/10/08 07:06:02;;;;;;;22.77;10.35;;;;;;;14.54;nan;100619.41;4949072;28;20397;-74
2023/10/08 07:08:32;;;;;;;18.60;10.00;;;;;;;14.48;nan;100607.09;4951138;28;20580;-74
2023/10/08 07:11:00;;;;;;;21.67;10.25;;;;;;;14.65;nan;100630.94;4953222;28;20019;-74
2023/10/08 07:13:29;;;;;;;20.42;9.70;;;;;;;14.67;nan;100629.63;4952991;28;20033;-74
2023/10/08 07:15:55;;;;;;;18.90;9.48;;;;;;;14.60;nan;100614.97;4940379;28;20103;-74
2023/10/08 07:18:24;;;;;;;22.42;9.55;;;;;;;14.70;nan;100622.25;4949395;28;20063;-74
2023/10/08 07:20:56;;;;;;;19.58;9.40;;;;;;;14.70;nan;100616.94;4948479;28;20046;-74
2023/10/08 07:23:24;;;;;;;20.88;10.10;;;;;;;14.77;nan;100612.25;4955967;28;20038;-75
2023/10/08 07:26:11;;;;;;;22.02;9.88;;;;;;;14.82;nan;100620.28;4962327;28;20028;-74
2023/10/08 07:28:41;;;;;;;16.90;8.90;;;;;;;14.82;nan;100625.56;4965600;28;20058;-75
2023/10/08 07:31:17;;;;;;;20.70;9.85;;;;;;;14.81;nan;100613.38;4967836;28;20046;-75
2023/10/08 07:33:43;;;;;;;17.67;9.73;;;;;;;14.86;nan;100608.13;4957293;28;20027;-75
2023/10/08 07:36:14;;;;;;;20.10;9.35;;;;;;;14.93;nan;100619.34;4954241;28;20023;-73
2023/10/08 07:38:42;;;;;;;16.38;8.70;;;;;;;14.89;nan;100619.06;4950720;28;20486;-72
2023/10/08 07:41:15;;;;;;;19.60;9.45;;;;;;;14.96;nan;100629.44;4946280;28;20545;-74
2023/10/08 07:43:43;;;;;;;18.50;9.00;;;;;;;14.89;nan;100620.88;4949745;29;20039;-73
2023/10/08 07:46:10;;;;;;;18.00;9.13;;;;;;;15.00;nan;100621.81;4949445;29;20047;-73
2023/10/08 07:48:44;;;;;;;22.40;9.15;;;;;;;15.02;nan;100623.16;4949650;28;20126;-75
2023/10/08 07:51:10;;;;;;;20.90;9.25;;;;;;;15.01;nan;100626.88;4949345;28;20102;-74
2023/10/08 07:53:38;;;;;;;18.40;9.30;;;;;;;15.04;nan;100622.94;4948989;28;20534;-74
2023/10/08 07:56:06;;;;;;;20.98;9.73;;;;;;;15.05;nan;100617.34;4948547;28;20027;-73
2023/10/08 07:58:36;;;;;;;18.80;9.15;;;;;;;15.13;nan;100615.31;4947940;28;20058;-73
2023/10/08 08:01:06;;;;;;;17.90;9.80;;;;;;;15.19;nan;100609.03;4950983;28;20035;-73
2023/10/08 08:03:36;;;;;;;20.38;9.27;;;;;;;15.25;nan;100608.00;4950350;29;20549;-73
2023/10/08 08:06:09;;;;;;;16.15;8.45;;;;;;;15.30;nan;100605.44;4951318;28;20462;-73
2023/10/08 08:08:39;;;;;;;21.60;9.68;;;;;;;15.31;nan;100597.19;4958118;28;20085;-74
2023/10/08 08:11:11;;;;;;;19.58;9.60;;;;;;;15.39;nan;100608.41;4954057;28;20389;-74
2023/10/08 08:13:43;;;;;;;17.67;8.55;;;;;;;15.47;nan;100605.31;4953404;28;20244;-74
2023/10/08 08:16:16;;;;;;;19.35;9.10;;;;;;;15.66;nan;100619.00;4954999;28;20034;-74
2023/10/08 08:18:49;;;;;;;17.23;8.50;;;;;;;15.73;nan;100609.81;4947569;28;20031;-74
2023/10/08 08:21:16;;;;;;;16.55;8.50;;;;;;;15.82;nan;100612.78;4952579;28;20546;-74
2023/10/08 08:23:49;;;;;;;14.18;8.00;;;;;;;15.96;nan;100613.13;4951184;28;20046;-73
2023/10/08 08:26:28;;;;;;;19.13;8.55;;;;;;;16.01;nan;100605.19;4966939;28;20015;-73
2023/10/08 08:28:59;;;;;;;18.55;8.38;;;;;;;16.14;nan;100611.94;4972144;28;20024;-74
2023/10/08 08:31:26;;;;;;;21.75;9.55;;;;;;;16.23;nan;100594.44;4973938;28;20038;-73
2023/10/08 08:33:52;;;;;;;20.92;8.93;;;;;;;16.19;nan;100572.13;4971557;28;20015;-72
2023/10/08 08:36:22;;;;;;;18.73;8.25;;;;;;;16.31;nan;100583.34;4975027;28;20054;-73
2023/10/08 08:38:48;;;;;;;15.50;8.05;;;;;;;16.50;nan;100594.31;4953228;28;20031;-73
2023/10/08 08:41:17;;;;;;;20.30;8.75;;;;;;;16.64;nan;100596.50;4952869;28;20058;-73
2023/10/08 08:43:44;;;;;;;18.10;9.00;;;;;;;16.75;nan;100587.50;4964902;28;20473;-73
2023/10/08 08:46:12;;;;;;;14.73;8.15;;;;;;;16.84;nan;100583.31;4953141;28;20027;-73
2023/10/08 08:48:40;;;;;;;19.63;8.77;;;;;;;16.97;nan;100582.00;4952288;28;20050;-72
2023/10/08 08:51:06;;;;;;;14.90;8.88;;;;;;;17.06;nan;100580.41;4951152;28;20118;-72
2023/10/08 08:53:33;;;;;;;13.75;7.78;;;;;;;17.11;nan;100567.13;4949781;28;20801;-73
2023/10/08 08:56:03;;;;;;;13.55;7.60;;;;;;;17.04;nan;100539.97;4956569;28;20027;-75
2023/10/08 08:58:32;;;;;;;19.13;8.50;;;;;;;17.34;nan;100552.50;4958093;28;20462;-73
2023/10/08 09:00:59;;;;;;;17.85;8.82;;;;;;;17.55;nan;100560.47;4953399;28;20089;-72
2023/10/08 09:03:30;;;;;;;15.45;7.10;;;;;;;17.67;nan;100555.72;4952586;28;20032;-73
2023/10/08 09:05:59;;;;;;;14.43;7.80;;;;;;;17.77;nan;100542.38;4953984;28;20027;-73
2023/10/08 09:08:28;;;;;;;11.85;6.80;;;;;;;18.03;nan;100550.34;4955436;28;20031;-73
2023/10/08 09:11:00;;;;;;;;;;;;;;;18.25;nan;100553.47;4955737;28;20090;-73
2023/10/08 09:13:26;;;;;;;14.77;6.75;;;;;;;18.34;nan;100532.38;4968920;28;19921;-74
2023/10/08 09:15:52;;;;;;;13.63;6.50;;;;;;;18.58;nan;100537.84;4953617;28;20029;-73
2023/10/08 09:18:21;;;;;;;14.02;7.20;;;;;;;18.79;nan;100543.09;4955910;28;20385;-74
2023/10/08 09:20:47;;;;;;;13.30;6.43;;;;;;;18.84;nan;100540.41;4953568;28;20043;-73
2023/10/08 09:23:43;;;;;;;16.35;7.35;;;;;;;19.09;nan;100553.56;4961126;28;20094;-72
2023/10/08 09:26:14;;;;;;;15.02;6.97;;;;;;;19.20;nan;100558.84;4953345;28;20529;-73
2023/10/08 09:28:46;;;;;;;12.63;6.30;;;;;;;19.30;nan;100558.78;4955238;28;20106;-73
2023/10/08 09:31:12;;;;;;;11.77;6.43;;;;;;;19.27;nan;100536.06;4954011;28;20027;-72
2023/10/08 09:33:38;;;;;;;12.75;6.85;;;;;;;19.46;nan;100557.56;4945618;28;20031;-73
2023/10/08 09:36:06;;;;;;;13.40;6.35;;;;;;;19.51;nan;100538.84;4957480;28;20062;-73
2023/10/08 09:38:33;;;;;;;19.38;6.32;;;;;;;19.74;nan;100553.31;4954365;28;20480;-73
2023/10/08 09:41:02;;;;;;;15.88;6.45;;;;;;;19.74;nan;100539.97;4953001;28;20031;-73
2023/10/08 09:43:28;;;;;;;18.33;6.57;;;;;;;19.86;nan;100536.13;4953801;28;20039;-73
2023/10/08 09:46:08;;;;;;;14.75;6.05;;;;;;;20.11;nan;100527.00;4953192;28;20063;-74
2023/10/08 09:48:37;;;;;;;14.80;5.95;;;;;;;20.26;nan;100529.53;4952680;28;20031;-73
2023/10/08 09:51:06;;;;;;;21.35;5.03;;;;;;;20.69;nan;100542.13;4952893;28;20027;-73
2023/10/08 09:53:58;;;;;;;15.63;4.25;;;;;;;21.00;nan;100535.22;4951304;28;20035;-72
2023/10/08 09:56:24;;;;;;;22.75;3.85;;;;;;;21.17;nan;100533.91;4950419;28;20038;-73
2023/10/08 09:58:50;;;;;;;24.10;3.63;;;;;;;21.34;nan;100530.69;4950639;28;20051;-72
2023/10/08 10:01:18;;;;;;;15.93;3.30;;;;;;;21.54;nan;100532.22;4952169;28;20023;-73
2023/10/08 10:03:45;;;;;;;15.93;3.05;;;;;;;21.81;nan;100529.59;4952022;28;20115;-73
2023/10/08 10:06:15;;;;;;;22.70;4.03;;;;;;;21.93;nan;100528.28;4951181;28;20047;-74
2023/10/08 10:08:45;;;;;;;18.90;3.35;;;;;;;22.01;nan;100525.72;4951799;28;20042;-72
2023/10/08 10:11:11;;;;;;;14.90;3.65;;;;;;;22.14;nan;100534.84;4954868;28;20092;-72
2023/10/08 10:13:50;;;;;;;16.80;3.53;;;;;;;22.19;nan;100523.22;4949983;28;20040;-72
2023/10/08 10:16:21;;;;;;;14.00;3.53;;;;;;;22.19;nan;100505.22;4952007;28;20031;-73
2023/10/08 10:18:49;;;;;;;9.60;3.03;;;;;;;22.34;nan;100522.94;4956726;28;20034;-72
2023/10/08 10:21:15;;;;;;;9.60;3.08;;;;;;;22.42;nan;100518.75;4951259;28;20035;-72
2023/10/08 10:23:51;;;;;;;13.02;2.95;;;;;;;22.49;nan;100519.94;4952289;28;20130;-72
2023/10/08 10:26:31;;;;;;;13.10;3.63;;;;;;;22.62;nan;100528.25;4951420;28;20015;-72
2023/10/08 10:29:14;;;;;;;7.93;2.80;;;;;;;22.75;nan;100531.97;4947092;28;20031;-71
2023/10/08 10:31:49;;;;;;;15.82;2.53;;;;;;;22.84;nan;100538.22;4952844;28;20489;-72
2023/10/08 10:34:30;;;;;;;12.10;2.72;;;;;;;22.81;nan;100520.03;4947045;28;20067;-72
2023/10/08 10:37:08;;;;;;;15.15;3.50;;;;;;;22.97;nan;100528.53;4950674;28;20482;-71
2023/10/08 10:39:39;;;;;;;10.43;3.28;;;;;;;23.07;nan;100528.31;4952758;28;20055;-71
2023/10/08 10:42:18;;;;;;;20.23;2.97;;;;;;;23.16;nan;100536.44;4951738;28;20027;-72
2023/10/08 10:44:44;;;;;;;;;;;;;;;23.25;nan;100531.91;4950075;28;20023;-72
2023/10/08 10:52:31;;;;;;;16.27;3.00;;;;;;;23.31;nan;100518.03;4950024;28;20087;-71
2023/10/08 10:55:17;;;;;;;13.35;2.83;;;;;;;23.33;nan;100515.06;4951149;28;20051;-71
2023/10/08 11:03:02;;;;;;;8.38;2.63;;;;;;;23.45;nan;100504.53;4949883;28;20508;-71
2023/10/08 11:05:37;;;;;;;9.90;2.72;;;;;;;23.58;nan;100516.28;4951131;28;20486;-72
2023/10/08 11:08:05;;;;;;;15.65;2.67;;;;;;;23.55;nan;100490.03;4948334;28;20546;-72
2023/10/08 11:10:42;;;;;;;13.48;2.65;;;;;;;23.66;nan;100504.78;4952528;28;20070;-71
2023/10/08 11:13:14;;;;;;;8.30;2.50;;;;;;;23.62;nan;100481.50;4957314;28;20043;-73
2023/10/08 11:15:41;;;;;;;8.93;1.88;;;;;;;23.79;nan;100500.41;4972064;28;20023;-71
2023/10/08 11:18:10;;;;;;;8.00;2.47;;;;;;;23.79;nan;100508.47;4975354;28;20027;-72
2023/10/08 11:20:44;;;;;;;9.23;2.25;;;;;;;23.81;nan;100502.81;4976504;28;20070;-72
2023/10/08 11:23:33;;;;;;;7.20;2.00;;;;;;;23.85;nan;100509.94;4975587;28;20019;-72
2023/10/08 11:26:03;;;;;;;15.07;2.80;;;;;;;23.77;nan;100503.41;4974723;28;20050;-72
2023/10/08 11:28:42;;;;;;;10.00;2.28;;;;;;;23.85;nan;100515.31;4969606;28;20478;-73
2023/10/08 11:31:11;;;;;;;8.57;2.50;;;;;;;23.89;nan;100516.25;4951666;28;20473;-73
2023/10/08 11:33:38;;;;;;;;;;;;;;;23.96;nan;100526.56;4955970;28;20031;-72
2023/10/08 11:36:18;;;;;;;12.05;2.40;;;;;;;23.89;nan;100518.16;4951352;28;19975;-72
2023/10/08 11:38:47;;;;;;;10.45;2.15;;;;;;;23.88;nan;100511.22;4955023;28;20025;-73
2023/10/08 11:41:23;;;;;;;9.65;2.25;;;;;;;23.87;nan;100521.19;4954955;28;20065;-77
2023/10/08 11:43:59;;;;;;;13.63;2.53;;;;;;;23.87;nan;100513.13;4950623;28;20031;-73
2023/10/08 11:46:27;;;;;;;10.68;2.60;;;;;;;23.90;nan;100517.09;4951612;28;20060;-73
2023/10/08 11:48:58;;;;;;;14.82;2.60;;;;;;;23.91;nan;100507.91;4952008;28;20035;-72
2023/10/08 11:51:24;;;;;;;13.95;2.80;;;;;;;23.89;nan;100508.19;4952255;28;20036;-74
2023/10/08 11:53:51;;;;;;;13.07;2.58;;;;;;;23.94;nan;100524.22;4952091;28;20054;-72
2023/10/08 11:56:21;;;;;;;12.95;2.70;;;;;;;23.95;nan;100519.63;4951279;28;20023;-72
2023/10/08 11:58:46;;;;;;;9.77;3.25;;;;;;;23.96;nan;100515.81;4964832;28;20474;-73
2023/10/08 12:01:15;;;;;;;25.65;3.03;;;;;;;23.85;nan;100509.94;4948233;28;20023;-72
2023/10/08 12:03:43;;;;;;;17.23;3.00;;;;;;;23.86;nan;100516.91;4950725;28;20027;-71
2023/10/08 12:06:11;;;;;;;11.88;2.75;;;;;;;23.84;nan;100502.97;4952084;28;20050;-71
2023/10/08 12:08:39;;;;;;;14.38;2.60;;;;;;;23.98;nan;100511.72;4948930;28;20023;-72
2023/10/08 12:11:11;;;;;;;16.02;2.70;;;;;;;23.98;nan;100514.41;4950690;28;20387;-72
2023/10/08 12:13:47;;;;;;;12.57;2.85;;;;;;;23.83;nan;100496.00;4950999;28;20491;-72
2023/10/08 12:16:21;;;;;;;18.67;2.92;;;;;;;23.96;nan;100505.06;4956572;28;20035;-72
2023/10/08 12:18:58;;;;;;;22.88;3.65;;;;;;;23.94;nan;100507.25;4952620;28;20082;-72